sensor_id;sensor_type;location;lat;lon;timestamp;P1;durP1;ratioP1;P2;durP2;ratioP2
26211;SDS011;13951;49.516;6.094;2022-08-19T00:00:28;6.63;;;5.90;;
26211;SDS011;13951;49.516;6.094;2022-08-19T00:03:02;7.82;;;5.88;;
26211;SDS011;13951;49.516;6.094;2022-08-19T00:05:35;5.75;;;5.20;;
26211;SDS011;13951;49.516;6.094;2022-08-19T00:08:08;9.77;;;6.00;;
26211;SDS011;13951;49.516;6.094;2022-08-19T00:10:41;6.90;;;5.25;;
26211;SDS011;13951;49.516;6.094;2022-08-19T00:13:14;6.55;;;5.32;;
26211;SDS011;13951;49.516;6.094;2022-08-19T00:15:48;6.60;;;5.22;;
26211;SDS011;13951;49.516;6.094;2022-08-19T00:18:22;6.45;;;5.65;;
26211;SDS011;13951;49.516;6.094;2022-08-19T00:20:55;6.50;;;5.45;;
26211;SDS011;13951;49.516;6.094;2022-08-19T00:23:29;6.50;;;5.53;;
26211;SDS011;13951;49.516;6.094;2022-08-19T00:26:03;6.30;;;5.45;;
26211;SDS011;13951;49.516;6.094;2022-08-19T00:28:37;6.30;;;4.90;;
26211;SDS011;13951;49.516;6.094;2022-08-19T00:31:10;7.03;;;5.05;;
26211;SDS011;13951;49.516;6.094;2022-08-19T00:33:43;6.75;;;5.75;;
26211;SDS011;13951;49.516;6.094;2022-08-19T00:36:16;7.05;;;6.13;;
26211;SDS011;13951;49.516;6.094;2022-08-19T00:38:49;5.75;;;5.15;;
26211;SDS011;13951;49.516;6.094;2022-08-19T00:41:24;6.63;;;5.18;;
26211;SDS011;13951;49.516;6.094;2022-08-19T00:46:32;9.35;;;6.05;;
26211;SDS011;13951;49.516;6.094;2022-08-19T00:49:14;6.00;;;5.25;;
26211;SDS011;13951;49.516;6.094;2022-08-19T00:51:50;7.60;;;6.15;;
26211;SDS011;13951;49.516;6.094;2022-08-19T00:54:38;13.20;;;9.70;;
26211;SDS011;13951;49.516;6.094;2022-08-19T00:57:29;7.15;;;5.75;;
26211;SDS011;13951;49.516;6.094;2022-08-19T01:00:09;9.68;;;7.70;;
26211;SDS011;13951;49.516;6.094;2022-08-19T01:02:46;6.53;;;5.82;;
26211;SDS011;13951;49.516;6.094;2022-08-19T01:05:21;7.45;;;6.15;;
26211;SDS011;13951;49.516;6.094;2022-08-19T01:08:00;7.15;;;5.30;;
26211;SDS011;13951;49.516;6.094;2022-08-19T01:10:39;6.65;;;5.90;;
26211;SDS011;13951;49.516;6.094;2022-08-19T01:13:16;7.03;;;5.82;;
26211;SDS011;13951;49.516;6.094;2022-08-19T01:15:53;6.82;;;5.95;;
26211;SDS011;13951;49.516;6.094;2022-08-19T01:18:30;6.88;;;5.80;;
26211;SDS011;13951;49.516;6.094;2022-08-19T01:21:09;8.65;;;6.20;;
26211;SDS011;13951;49.516;6.094;2022-08-19T01:23:54;7.20;;;5.75;;
26211;SDS011;13951;49.516;6.094;2022-08-19T01:26:27;6.85;;;6.00;;
26211;SDS011;13951;49.516;6.094;2022-08-19T01:29:02;6.47;;;5.72;;
26211;SDS011;13951;49.516;6.094;2022-08-19T01:31:36;7.03;;;5.90;;
26211;SDS011;13951;49.516;6.094;2022-08-19T01:34:11;6.55;;;5.68;;
26211;SDS011;13951;49.516;6.094;2022-08-19T01:36:45;7.40;;;5.38;;
26211;SDS011;13951;49.516;6.094;2022-08-19T01:39:20;7.50;;;6.03;;
26211;SDS011;13951;49.516;6.094;2022-08-19T01:41:55;7.70;;;6.00;;
26211;SDS011;13951;49.516;6.094;2022-08-19T01:44:28;7.82;;;6.35;;
26211;SDS011;13951;49.516;6.094;2022-08-19T01:47:02;9.50;;;5.75;;
26211;SDS011;13951;49.516;6.094;2022-08-19T01:49:36;7.20;;;6.00;;
26211;SDS011;13951;49.516;6.094;2022-08-19T01:52:09;7.82;;;6.45;;
26211;SDS011;13951;49.516;6.094;2022-08-19T01:54:42;8.18;;;6.32;;
26211;SDS011;13951;49.516;6.094;2022-08-19T01:57:15;7.93;;;6.47;;
26211;SDS011;13951;49.516;6.094;2022-08-19T01:59:48;7.68;;;5.97;;
26211;SDS011;13951;49.516;6.094;2022-08-19T02:02:22;6.32;;;5.63;;
26211;SDS011;13951;49.516;6.094;2022-08-19T02:04:56;7.20;;;6.07;;
26211;SDS011;13951;49.516;6.094;2022-08-19T02:07:29;7.18;;;6.03;;
26211;SDS011;13951;49.516;6.094;2022-08-19T02:10:06;8.45;;;6.68;;
26211;SDS011;13951;49.516;6.094;2022-08-19T02:12:44;7.10;;;5.95;;
26211;SDS011;13951;49.516;6.094;2022-08-19T02:15:19;8.85;;;6.57;;
26211;SDS011;13951;49.516;6.094;2022-08-19T02:17:54;9.13;;;6.80;;
26211;SDS011;13951;49.516;6.094;2022-08-19T02:20:27;8.80;;;6.72;;
26211;SDS011;13951;49.516;6.094;2022-08-19T02:23:00;7.20;;;6.10;;
26211;SDS011;13951;49.516;6.094;2022-08-19T02:25:33;7.70;;;6.30;;
26211;SDS011;13951;49.516;6.094;2022-08-19T02:28:06;9.10;;;6.72;;
26211;SDS011;13951;49.516;6.094;2022-08-19T02:30:40;10.13;;;6.93;;
26211;SDS011;13951;49.516;6.094;2022-08-19T02:33:13;8.15;;;6.43;;
26211;SDS011;13951;49.516;6.094;2022-08-19T02:35:47;7.53;;;6.03;;
26211;SDS011;13951;49.516;6.094;2022-08-19T02:38:20;6.80;;;5.50;;
26211;SDS011;13951;49.516;6.094;2022-08-19T02:41:06;8.13;;;6.70;;
26211;SDS011;13951;49.516;6.094;2022-08-19T02:43:43;8.70;;;6.95;;
26211;SDS011;13951;49.516;6.094;2022-08-19T02:46:36;10.00;;;7.60;;
26211;SDS011;13951;49.516;6.094;2022-08-19T02:49:09;9.50;;;7.50;;
26211;SDS011;13951;49.516;6.094;2022-08-19T02:51:43;8.57;;;6.65;;
26211;SDS011;13951;49.516;6.094;2022-08-19T02:54:17;9.68;;;6.88;;
26211;SDS011;13951;49.516;6.094;2022-08-19T02:56:50;7.97;;;6.18;;
26211;SDS011;13951;49.516;6.094;2022-08-19T02:59:23;7.90;;;6.85;;
26211;SDS011;13951;49.516;6.094;2022-08-19T03:01:58;9.77;;;7.22;;
26211;SDS011;13951;49.516;6.094;2022-08-19T03:04:31;8.43;;;6.43;;
26211;SDS011;13951;49.516;6.094;2022-08-19T03:07:04;6.65;;;5.80;;
26211;SDS011;13951;49.516;6.094;2022-08-19T03:09:42;9.13;;;6.78;;
26211;SDS011;13951;49.516;6.094;2022-08-19T03:12:15;8.35;;;6.57;;
26211;SDS011;13951;49.516;6.094;2022-08-19T03:14:48;9.65;;;7.38;;
26211;SDS011;13951;49.516;6.094;2022-08-19T03:17:21;8.50;;;7.15;;
26211;SDS011;13951;49.516;6.094;2022-08-19T03:19:54;8.60;;;7.05;;
26211;SDS011;13951;49.516;6.094;2022-08-19T03:22:27;8.88;;;6.55;;
26211;SDS011;13951;49.516;6.094;2022-08-19T03:25:02;11.00;;;7.65;;
26211;SDS011;13951;49.516;6.094;2022-08-19T03:27:36;8.00;;;6.45;;
26211;SDS011;13951;49.516;6.094;2022-08-19T03:30:09;8.98;;;7.32;;
26211;SDS011;13951;49.516;6.094;2022-08-19T03:32:43;11.20;;;7.32;;
26211;SDS011;13951;49.516;6.094;2022-08-19T03:35:17;9.90;;;7.45;;
26211;SDS011;13951;49.516;6.094;2022-08-19T03:37:49;10.20;;;7.63;;
26211;SDS011;13951;49.516;6.094;2022-08-19T03:40:23;10.05;;;7.05;;
26211;SDS011;13951;49.516;6.094;2022-08-19T03:42:56;9.52;;;7.20;;
26211;SDS011;13951;49.516;6.094;2022-08-19T03:45:29;9.40;;;6.50;;
26211;SDS011;13951;49.516;6.094;2022-08-19T03:48:02;9.38;;;7.32;;
26211;SDS011;13951;49.516;6.094;2022-08-19T03:50:39;11.05;;;7.57;;
26211;SDS011;13951;49.516;6.094;2022-08-19T03:53:12;9.68;;;7.45;;
26211;SDS011;13951;49.516;6.094;2022-08-19T03:55:45;10.18;;;7.95;;
26211;SDS011;13951;49.516;6.094;2022-08-19T03:58:18;11.65;;;8.68;;
26211;SDS011;13951;49.516;6.094;2022-08-19T04:00:51;7.85;;;6.13;;
26211;SDS011;13951;49.516;6.094;2022-08-19T04:03:25;12.50;;;8.63;;
26211;SDS011;13951;49.516;6.094;2022-08-19T04:05:59;9.68;;;7.68;;
26211;SDS011;13951;49.516;6.094;2022-08-19T04:08:42;10.05;;;6.85;;
26211;SDS011;13951;49.516;6.094;2022-08-19T04:11:18;10.10;;;7.28;;
26211;SDS011;13951;49.516;6.094;2022-08-19T04:14:17;10.93;;;7.63;;
26211;SDS011;13951;49.516;6.094;2022-08-19T04:16:51;10.57;;;7.60;;
26211;SDS011;13951;49.516;6.094;2022-08-19T04:19:25;6.95;;;5.80;;
26211;SDS011;13951;49.516;6.094;2022-08-19T04:21:58;9.57;;;7.25;;
26211;SDS011;13951;49.516;6.094;2022-08-19T04:24:32;9.98;;;7.65;;
26211;SDS011;13951;49.516;6.094;2022-08-19T04:27:06;10.18;;;7.43;;
26211;SDS011;13951;49.516;6.094;2022-08-19T04:29:39;10.75;;;7.80;;
26211;SDS011;13951;49.516;6.094;2022-08-19T04:32:12;7.30;;;6.10;;
26211;SDS011;13951;49.516;6.094;2022-08-19T04:34:47;10.25;;;7.68;;
26211;SDS011;13951;49.516;6.094;2022-08-19T04:37:40;8.73;;;7.70;;
26211;SDS011;13951;49.516;6.094;2022-08-19T04:40:13;12.95;;;8.27;;
26211;SDS011;13951;49.516;6.094;2022-08-19T04:43:05;10.50;;;7.47;;
26211;SDS011;13951;49.516;6.094;2022-08-19T04:45:38;11.70;;;8.82;;
26211;SDS011;13951;49.516;6.094;2022-08-19T04:48:15;11.82;;;7.53;;
26211;SDS011;13951;49.516;6.094;2022-08-19T04:50:58;13.25;;;8.25;;
26211;SDS011;13951;49.516;6.094;2022-08-19T04:53:32;8.10;;;6.18;;
26211;SDS011;13951;49.516;6.094;2022-08-19T04:56:11;8.90;;;6.65;;
26211;SDS011;13951;49.516;6.094;2022-08-19T04:58:45;11.75;;;7.55;;
26211;SDS011;13951;49.516;6.094;2022-08-19T05:01:26;9.02;;;7.07;;
26211;SDS011;13951;49.516;6.094;2022-08-19T05:04:05;9.13;;;7.10;;
26211;SDS011;13951;49.516;6.094;2022-08-19T05:06:39;10.70;;;7.70;;
26211;SDS011;13951;49.516;6.094;2022-08-19T05:09:12;10.73;;;8.00;;
26211;SDS011;13951;49.516;6.094;2022-08-19T05:11:45;9.85;;;7.43;;
26211;SDS011;13951;49.516;6.094;2022-08-19T05:14:18;8.20;;;6.65;;
26211;SDS011;13951;49.516;6.094;2022-08-19T05:16:52;12.40;;;8.10;;
26211;SDS011;13951;49.516;6.094;2022-08-19T05:19:45;11.40;;;8.60;;
26211;SDS011;13951;49.516;6.094;2022-08-19T05:22:36;9.23;;;7.07;;
26211;SDS011;13951;49.516;6.094;2022-08-19T05:25:11;9.65;;;7.53;;
26211;SDS011;13951;49.516;6.094;2022-08-19T05:27:47;9.98;;;6.85;;
26211;SDS011;13951;49.516;6.094;2022-08-19T05:30:21;11.25;;;7.70;;
26211;SDS011;13951;49.516;6.094;2022-08-19T05:33:13;8.25;;;6.70;;
26211;SDS011;13951;49.516;6.094;2022-08-19T05:35:47;9.90;;;7.32;;
26211;SDS011;13951;49.516;6.094;2022-08-19T05:38:21;10.05;;;7.90;;
26211;SDS011;13951;49.516;6.094;2022-08-19T05:40:54;9.73;;;6.88;;
26211;SDS011;13951;49.516;6.094;2022-08-19T05:43:27;7.90;;;6.32;;
26211;SDS011;13951;49.516;6.094;2022-08-19T05:46:01;13.85;;;8.52;;
26211;SDS011;13951;49.516;6.094;2022-08-19T05:48:34;8.85;;;6.88;;
26211;SDS011;13951;49.516;6.094;2022-08-19T05:51:08;10.23;;;6.68;;
26211;SDS011;13951;49.516;6.094;2022-08-19T05:53:41;13.00;;;7.40;;
26211;SDS011;13951;49.516;6.094;2022-08-19T05:56:16;14.07;;;8.45;;
26211;SDS011;13951;49.516;6.094;2022-08-19T05:58:50;14.75;;;7.70;;
26211;SDS011;13951;49.516;6.094;2022-08-19T06:01:25;9.85;;;6.32;;
26211;SDS011;13951;49.516;6.094;2022-08-19T06:03:58;10.90;;;7.95;;
26211;SDS011;13951;49.516;6.094;2022-08-19T06:06:32;9.80;;;7.80;;
26211;SDS011;13951;49.516;6.094;2022-08-19T06:09:06;9.90;;;6.75;;
26211;SDS011;13951;49.516;6.094;2022-08-19T06:11:44;12.32;;;9.30;;
26211;SDS011;13951;49.516;6.094;2022-08-19T06:14:28;11.60;;;8.55;;
26211;SDS011;13951;49.516;6.094;2022-08-19T06:17:04;12.60;;;7.63;;
26211;SDS011;13951;49.516;6.094;2022-08-19T06:19:38;11.10;;;7.88;;
26211;SDS011;13951;49.516;6.094;2022-08-19T06:22:13;11.80;;;7.72;;
26211;SDS011;13951;49.516;6.094;2022-08-19T06:24:46;9.68;;;7.28;;
26211;SDS011;13951;49.516;6.094;2022-08-19T06:27:19;11.75;;;8.13;;
26211;SDS011;13951;49.516;6.094;2022-08-19T06:29:52;10.07;;;7.50;;
26211;SDS011;13951;49.516;6.094;2022-08-19T06:32:26;10.70;;;7.38;;
26211;SDS011;13951;49.516;6.094;2022-08-19T06:34:59;10.70;;;7.47;;
26211;SDS011;13951;49.516;6.094;2022-08-19T06:37:32;10.38;;;8.27;;
26211;SDS011;13951;49.516;6.094;2022-08-19T06:40:05;10.50;;;8.20;;
26211;SDS011;13951;49.516;6.094;2022-08-19T06:42:40;11.88;;;7.28;;
26211;SDS011;13951;49.516;6.094;2022-08-19T06:45:25;9.23;;;7.78;;
26211;SDS011;13951;49.516;6.094;2022-08-19T06:48:07;9.32;;;7.10;;
26211;SDS011;13951;49.516;6.094;2022-08-19T06:50:43;10.50;;;7.20;;
26211;SDS011;13951;49.516;6.094;2022-08-19T06:53:15;8.80;;;6.70;;
26211;SDS011;13951;49.516;6.094;2022-08-19T06:55:54;10.50;;;7.38;;
26211;SDS011;13951;49.516;6.094;2022-08-19T06:58:35;8.30;;;6.50;;
26211;SDS011;13951;49.516;6.094;2022-08-19T07:01:08;11.13;;;8.38;;
26211;SDS011;13951;49.516;6.094;2022-08-19T07:03:41;8.93;;;7.15;;
26211;SDS011;13951;49.516;6.094;2022-08-19T07:06:15;9.57;;;7.32;;
26211;SDS011;13951;49.516;6.094;2022-08-19T07:09:12;12.98;;;9.32;;
26211;SDS011;13951;49.516;6.094;2022-08-19T07:11:52;9.57;;;6.22;;
26211;SDS011;13951;49.516;6.094;2022-08-19T07:14:26;13.82;;;9.45;;
26211;SDS011;13951;49.516;6.094;2022-08-19T07:17:00;8.32;;;6.80;;
26211;SDS011;13951;49.516;6.094;2022-08-19T07:19:33;9.00;;;6.68;;
26211;SDS011;13951;49.516;6.094;2022-08-19T07:22:07;11.15;;;8.20;;
26211;SDS011;13951;49.516;6.094;2022-08-19T07:24:44;10.70;;;7.40;;
26211;SDS011;13951;49.516;6.094;2022-08-19T07:27:23;13.65;;;8.70;;
26211;SDS011;13951;49.516;6.094;2022-08-19T07:29:57;10.73;;;8.55;;
26211;SDS011;13951;49.516;6.094;2022-08-19T07:32:31;12.07;;;9.05;;
26211;SDS011;13951;49.516;6.094;2022-08-19T07:35:06;10.75;;;7.60;;
26211;SDS011;13951;49.516;6.094;2022-08-19T07:37:46;10.63;;;7.68;;
26211;SDS011;13951;49.516;6.094;2022-08-19T07:40:19;13.80;;;9.07;;
26211;SDS011;13951;49.516;6.094;2022-08-19T07:42:52;13.55;;;9.55;;
26211;SDS011;13951;49.516;6.094;2022-08-19T07:45:25;12.70;;;9.85;;
26211;SDS011;13951;49.516;6.094;2022-08-19T07:47:59;13.68;;;11.05;;
26211;SDS011;13951;49.516;6.094;2022-08-19T07:50:33;13.38;;;10.45;;
26211;SDS011;13951;49.516;6.094;2022-08-19T07:53:06;13.45;;;10.93;;
26211;SDS011;13951;49.516;6.094;2022-08-19T07:55:39;12.95;;;10.35;;
26211;SDS011;13951;49.516;6.094;2022-08-19T07:58:16;15.05;;;10.52;;
26211;SDS011;13951;49.516;6.094;2022-08-19T08:00:52;11.52;;;10.20;;
26211;SDS011;13951;49.516;6.094;2022-08-19T08:03:25;10.77;;;8.93;;
26211;SDS011;13951;49.516;6.094;2022-08-19T08:06:18;11.65;;;10.35;;
26211;SDS011;13951;49.516;6.094;2022-08-19T08:09:10;12.65;;;10.27;;
26211;SDS011;13951;49.516;6.094;2022-08-19T08:11:45;13.15;;;10.85;;
26211;SDS011;13951;49.516;6.094;2022-08-19T08:14:35;13.32;;;10.65;;
26211;SDS011;13951;49.516;6.094;2022-08-19T08:17:19;15.43;;;12.32;;
26211;SDS011;13951;49.516;6.094;2022-08-19T08:20:15;12.98;;;10.20;;
26211;SDS011;13951;49.516;6.094;2022-08-19T08:22:49;12.70;;;10.82;;
26211;SDS011;13951;49.516;6.094;2022-08-19T08:25:40;14.35;;;11.55;;
26211;SDS011;13951;49.516;6.094;2022-08-19T08:28:15;12.57;;;10.60;;
26211;SDS011;13951;49.516;6.094;2022-08-19T08:30:50;13.13;;;10.73;;
26211;SDS011;13951;49.516;6.094;2022-08-19T08:33:25;16.63;;;11.60;;
26211;SDS011;13951;49.516;6.094;2022-08-19T08:36:12;10.50;;;9.20;;
26211;SDS011;13951;49.516;6.094;2022-08-19T08:38:48;12.90;;;11.13;;
26211;SDS011;13951;49.516;6.094;2022-08-19T08:44:17;14.05;;;10.70;;
26211;SDS011;13951;49.516;6.094;2022-08-19T08:47:15;12.77;;;10.85;;
26211;SDS011;13951;49.516;6.094;2022-08-19T08:50:04;12.27;;;10.18;;
26211;SDS011;13951;49.516;6.094;2022-08-19T08:53:02;13.77;;;10.18;;
26211;SDS011;13951;49.516;6.094;2022-08-19T08:55:39;10.95;;;8.55;;
26211;SDS011;13951;49.516;6.094;2022-08-19T08:58:24;11.68;;;9.02;;
26211;SDS011;13951;49.516;6.094;2022-08-19T09:01:03;9.85;;;8.35;;
26211;SDS011;13951;49.516;6.094;2022-08-19T09:03:37;12.85;;;10.35;;
26211;SDS011;13951;49.516;6.094;2022-08-19T09:14:45;13.65;;;8.55;;
26211;SDS011;13951;49.516;6.094;2022-08-19T09:17:31;9.73;;;8.10;;
26211;SDS011;13951;49.516;6.094;2022-08-19T09:20:22;8.27;;;6.80;;
26211;SDS011;13951;49.516;6.094;2022-08-19T09:23:05;9.75;;;7.47;;
26211;SDS011;13951;49.516;6.094;2022-08-19T09:25:41;8.82;;;7.50;;
26211;SDS011;13951;49.516;6.094;2022-08-19T09:28:29;9.88;;;7.70;;
26211;SDS011;13951;49.516;6.094;2022-08-19T09:31:03;8.38;;;6.65;;
26211;SDS011;13951;49.516;6.094;2022-08-19T09:33:37;8.95;;;6.60;;
26211;SDS011;13951;49.516;6.094;2022-08-19T09:36:14;9.65;;;7.38;;
26211;SDS011;13951;49.516;6.094;2022-08-19T09:39:06;9.95;;;7.57;;
26211;SDS011;13951;49.516;6.094;2022-08-19T09:41:48;8.20;;;6.60;;
26211;SDS011;13951;49.516;6.094;2022-08-19T09:44:22;9.07;;;6.78;;
26211;SDS011;13951;49.516;6.094;2022-08-19T09:47:01;7.57;;;6.57;;
26211;SDS011;13951;49.516;6.094;2022-08-19T09:49:39;7.90;;;7.10;;
26211;SDS011;13951;49.516;6.094;2022-08-19T09:52:21;7.32;;;6.35;;
26211;SDS011;13951;49.516;6.094;2022-08-19T09:54:56;10.00;;;6.95;;
26211;SDS011;13951;49.516;6.094;2022-08-19T09:57:30;9.00;;;6.80;;
26211;SDS011;13951;49.516;6.094;2022-08-19T10:00:04;9.63;;;7.13;;
26211;SDS011;13951;49.516;6.094;2022-08-19T10:02:46;8.68;;;7.45;;
26211;SDS011;13951;49.516;6.094;2022-08-19T10:05:42;7.18;;;6.47;;
26211;SDS011;13951;49.516;6.094;2022-08-19T10:09:18;9.50;;;7.68;;
26211;SDS011;13951;49.516;6.094;2022-08-19T10:12:06;9.07;;;7.45;;
26211;SDS011;13951;49.516;6.094;2022-08-19T10:14:42;9.18;;;7.25;;
26211;SDS011;13951;49.516;6.094;2022-08-19T10:17:15;8.02;;;7.13;;
26211;SDS011;13951;49.516;6.094;2022-08-19T10:19:52;8.75;;;7.03;;
26211;SDS011;13951;49.516;6.094;2022-08-19T10:22:27;11.30;;;7.80;;
26211;SDS011;13951;49.516;6.094;2022-08-19T10:25:03;8.85;;;7.45;;
26211;SDS011;13951;49.516;6.094;2022-08-19T10:27:37;10.00;;;8.68;;
26211;SDS011;13951;49.516;6.094;2022-08-19T10:30:11;11.13;;;8.30;;
26211;SDS011;13951;49.516;6.094;2022-08-19T10:32:45;10.98;;;8.75;;
26211;SDS011;13951;49.516;6.094;2022-08-19T10:35:18;9.45;;;7.28;;
26211;SDS011;13951;49.516;6.094;2022-08-19T10:37:55;9.40;;;7.90;;
26211;SDS011;13951;49.516;6.094;2022-08-19T10:40:36;10.80;;;8.50;;
26211;SDS011;13951;49.516;6.094;2022-08-19T10:43:09;11.65;;;8.13;;
26211;SDS011;13951;49.516;6.094;2022-08-19T10:45:48;11.25;;;7.47;;
26211;SDS011;13951;49.516;6.094;2022-08-19T10:48:44;16.13;;;11.30;;
26211;SDS011;13951;49.516;6.094;2022-08-19T10:51:18;10.32;;;8.55;;
26211;SDS011;13951;49.516;6.094;2022-08-19T10:54:19;11.27;;;8.75;;
26211;SDS011;13951;49.516;6.094;2022-08-19T10:57:04;10.75;;;8.75;;
26211;SDS011;13951;49.516;6.094;2022-08-19T10:59:38;9.40;;;7.63;;
26211;SDS011;13951;49.516;6.094;2022-08-19T11:02:11;10.23;;;7.32;;
26211;SDS011;13951;49.516;6.094;2022-08-19T11:04:45;12.00;;;8.35;;
26211;SDS011;13951;49.516;6.094;2022-08-19T11:07:18;11.10;;;8.45;;
26211;SDS011;13951;49.516;6.094;2022-08-19T11:09:51;11.85;;;9.02;;
26211;SDS011;13951;49.516;6.094;2022-08-19T11:12:24;8.40;;;7.07;;
26211;SDS011;13951;49.516;6.094;2022-08-19T11:14:57;8.55;;;7.35;;
26211;SDS011;13951;49.516;6.094;2022-08-19T11:17:31;9.32;;;7.65;;
26211;SDS011;13951;49.516;6.094;2022-08-19T11:20:04;9.02;;;6.38;;
26211;SDS011;13951;49.516;6.094;2022-08-19T11:22:38;7.75;;;6.38;;
26211;SDS011;13951;49.516;6.094;2022-08-19T11:25:13;5.63;;;4.93;;
26211;SDS011;13951;49.516;6.094;2022-08-19T11:27:51;3.78;;;3.40;;
26211;SDS011;13951;49.516;6.094;2022-08-19T11:30:27;3.97;;;3.40;;
26211;SDS011;13951;49.516;6.094;2022-08-19T11:33:02;2.72;;;2.45;;
26211;SDS011;13951;49.516;6.094;2022-08-19T11:35:38;3.60;;;2.80;;
26211;SDS011;13951;49.516;6.094;2022-08-19T11:38:12;3.67;;;3.08;;
26211;SDS011;13951;49.516;6.094;2022-08-19T11:40:53;3.47;;;3.17;;
26211;SDS011;13951;49.516;6.094;2022-08-19T11:43:28;5.10;;;3.10;;
26211;SDS011;13951;49.516;6.094;2022-08-19T11:46:07;3.30;;;2.40;;
26211;SDS011;13951;49.516;6.094;2022-08-19T11:48:43;4.13;;;3.22;;
26211;SDS011;13951;49.516;6.094;2022-08-19T11:51:17;2.85;;;2.33;;
26211;SDS011;13951;49.516;6.094;2022-08-19T11:53:55;3.38;;;3.08;;
26211;SDS011;13951;49.516;6.094;2022-08-19T11:56:30;5.50;;;4.22;;
26211;SDS011;13951;49.516;6.094;2022-08-19T11:59:04;3.60;;;3.13;;
26211;SDS011;13951;49.516;6.094;2022-08-19T12:01:37;4.82;;;3.72;;
26211;SDS011;13951;49.516;6.094;2022-08-19T12:04:15;4.20;;;3.45;;
26211;SDS011;13951;49.516;6.094;2022-08-19T12:06:49;4.47;;;3.30;;
26211;SDS011;13951;49.516;6.094;2022-08-19T12:09:22;4.55;;;3.72;;
26211;SDS011;13951;49.516;6.094;2022-08-19T12:11:55;4.95;;;3.75;;
26211;SDS011;13951;49.516;6.094;2022-08-19T12:14:28;4.10;;;3.63;;
26211;SDS011;13951;49.516;6.094;2022-08-19T12:17:02;4.28;;;3.88;;
26211;SDS011;13951;49.516;6.094;2022-08-19T12:19:40;3.70;;;3.38;;
26211;SDS011;13951;49.516;6.094;2022-08-19T12:22:13;4.70;;;4.15;;
26211;SDS011;13951;49.516;6.094;2022-08-19T12:24:46;4.03;;;3.55;;
26211;SDS011;13951;49.516;6.094;2022-08-19T12:27:20;5.38;;;3.97;;
26211;SDS011;13951;49.516;6.094;2022-08-19T12:30:03;5.40;;;4.32;;
26211;SDS011;13951;49.516;6.094;2022-08-19T12:32:39;5.30;;;3.95;;
26211;SDS011;13951;49.516;6.094;2022-08-19T12:35:12;4.25;;;3.83;;
26211;SDS011;13951;49.516;6.094;2022-08-19T12:37:45;5.28;;;4.20;;
26211;SDS011;13951;49.516;6.094;2022-08-19T12:40:29;4.53;;;4.00;;
26211;SDS011;13951;49.516;6.094;2022-08-19T12:43:02;3.83;;;3.50;;
26211;SDS011;13951;49.516;6.094;2022-08-19T12:45:39;4.93;;;4.03;;
26211;SDS011;13951;49.516;6.094;2022-08-19T12:48:13;4.35;;;3.75;;
26211;SDS011;13951;49.516;6.094;2022-08-19T12:51:06;3.78;;;3.45;;
26211;SDS011;13951;49.516;6.094;2022-08-19T12:53:47;4.68;;;4.10;;
26211;SDS011;13951;49.516;6.094;2022-08-19T12:56:22;4.30;;;3.60;;
26211;SDS011;13951;49.516;6.094;2022-08-19T12:59:06;4.72;;;3.83;;
26211;SDS011;13951;49.516;6.094;2022-08-19T13:01:40;4.40;;;3.80;;
26211;SDS011;13951;49.516;6.094;2022-08-19T13:04:16;5.47;;;4.18;;
26211;SDS011;13951;49.516;6.094;2022-08-19T13:06:50;4.22;;;3.80;;
26211;SDS011;13951;49.516;6.094;2022-08-19T13:09:23;4.30;;;3.80;;
26211;SDS011;13951;49.516;6.094;2022-08-19T13:11:56;3.88;;;3.42;;
26211;SDS011;13951;49.516;6.094;2022-08-19T13:14:29;4.57;;;3.78;;
26211;SDS011;13951;49.516;6.094;2022-08-19T13:17:05;4.63;;;3.80;;
26211;SDS011;13951;49.516;6.094;2022-08-19T13:19:38;5.88;;;4.07;;
26211;SDS011;13951;49.516;6.094;2022-08-19T13:22:12;4.25;;;3.53;;
26211;SDS011;13951;49.516;6.094;2022-08-19T13:24:46;4.95;;;3.60;;
26211;SDS011;13951;49.516;6.094;2022-08-19T13:27:20;3.92;;;3.50;;
26211;SDS011;13951;49.516;6.094;2022-08-19T13:29:53;3.80;;;3.25;;
26211;SDS011;13951;49.516;6.094;2022-08-19T13:32:45;4.47;;;3.25;;
26211;SDS011;13951;49.516;6.094;2022-08-19T13:35:37;3.70;;;3.28;;
26211;SDS011;13951;49.516;6.094;2022-08-19T13:38:12;3.22;;;2.40;;
26211;SDS011;13951;49.516;6.094;2022-08-19T13:40:46;3.40;;;3.03;;
26211;SDS011;13951;49.516;6.094;2022-08-19T13:43:21;3.47;;;2.80;;
26211;SDS011;13951;49.516;6.094;2022-08-19T13:45:55;3.55;;;3.00;;
26211;SDS011;13951;49.516;6.094;2022-08-19T13:48:29;3.20;;;2.67;;
26211;SDS011;13951;49.516;6.094;2022-08-19T13:51:04;2.30;;;2.03;;
26211;SDS011;13951;49.516;6.094;2022-08-19T13:53:38;3.42;;;2.50;;
26211;SDS011;13951;49.516;6.094;2022-08-19T13:56:12;2.55;;;2.30;;
26211;SDS011;13951;49.516;6.094;2022-08-19T13:58:47;3.05;;;2.38;;
26211;SDS011;13951;49.516;6.094;2022-08-19T14:01:21;2.88;;;2.40;;
26211;SDS011;13951;49.516;6.094;2022-08-19T14:03:56;2.70;;;2.30;;
26211;SDS011;13951;49.516;6.094;2022-08-19T14:06:29;2.47;;;1.95;;
26211;SDS011;13951;49.516;6.094;2022-08-19T14:09:02;2.53;;;1.60;;
26211;SDS011;13951;49.516;6.094;2022-08-19T14:11:35;2.10;;;1.90;;
26211;SDS011;13951;49.516;6.094;2022-08-19T14:14:09;2.40;;;1.83;;
26211;SDS011;13951;49.516;6.094;2022-08-19T14:16:47;3.20;;;1.83;;
26211;SDS011;13951;49.516;6.094;2022-08-19T14:19:21;4.30;;;1.90;;
26211;SDS011;13951;49.516;6.094;2022-08-19T14:21:55;1.55;;;1.33;;
26211;SDS011;13951;49.516;6.094;2022-08-19T14:24:29;1.65;;;1.23;;
26211;SDS011;13951;49.516;6.094;2022-08-19T14:27:02;1.50;;;1.35;;
26211;SDS011;13951;49.516;6.094;2022-08-19T14:29:36;1.15;;;1.05;;
26211;SDS011;13951;49.516;6.094;2022-08-19T14:32:09;1.10;;;1.00;;
26211;SDS011;13951;49.516;6.094;2022-08-19T14:34:48;1.25;;;1.00;;
26211;SDS011;13951;49.516;6.094;2022-08-19T14:37:21;1.00;;;0.85;;
26211;SDS011;13951;49.516;6.094;2022-08-19T14:39:56;1.00;;;0.90;;
26211;SDS011;13951;49.516;6.094;2022-08-19T14:42:29;2.10;;;0.90;;
26211;SDS011;13951;49.516;6.094;2022-08-19T14:45:02;1.35;;;1.25;;
26211;SDS011;13951;49.516;6.094;2022-08-19T14:47:37;1.08;;;0.90;;
26211;SDS011;13951;49.516;6.094;2022-08-19T14:50:12;0.80;;;0.80;;
26211;SDS011;13951;49.516;6.094;2022-08-19T14:52:50;0.75;;;0.70;;
26211;SDS011;13951;49.516;6.094;2022-08-19T14:55:32;0.60;;;0.55;;
26211;SDS011;13951;49.516;6.094;2022-08-19T14:58:05;0.57;;;0.50;;
26211;SDS011;13951;49.516;6.094;2022-08-19T15:00:40;0.63;;;0.55;;
26211;SDS011;13951;49.516;6.094;2022-08-19T15:03:13;0.57;;;0.57;;
26211;SDS011;13951;49.516;6.094;2022-08-19T15:05:46;0.60;;;0.60;;
26211;SDS011;13951;49.516;6.094;2022-08-19T15:08:19;1.17;;;0.70;;
26211;SDS011;13951;49.516;6.094;2022-08-19T15:10:57;0.90;;;0.60;;
26211;SDS011;13951;49.516;6.094;2022-08-19T15:13:30;1.88;;;0.65;;
26211;SDS011;13951;49.516;6.094;2022-08-19T15:16:06;0.70;;;0.60;;
26211;SDS011;13951;49.516;6.094;2022-08-19T15:18:50;0.45;;;0.45;;
26211;SDS011;13951;49.516;6.094;2022-08-19T15:21:27;1.15;;;0.60;;
26211;SDS011;13951;49.516;6.094;2022-08-19T15:24:01;0.60;;;0.60;;
26211;SDS011;13951;49.516;6.094;2022-08-19T15:26:37;0.45;;;0.43;;
26211;SDS011;13951;49.516;6.094;2022-08-19T15:29:10;0.95;;;0.47;;
26211;SDS011;13951;49.516;6.094;2022-08-19T15:31:46;0.63;;;0.63;;
26211;SDS011;13951;49.516;6.094;2022-08-19T15:34:21;0.77;;;0.70;;
26211;SDS011;13951;49.516;6.094;2022-08-19T15:36:54;0.68;;;0.60;;
26211;SDS011;13951;49.516;6.094;2022-08-19T15:39:27;0.65;;;0.50;;
26211;SDS011;13951;49.516;6.094;2022-08-19T15:42:00;0.60;;;0.60;;
26211;SDS011;13951;49.516;6.094;2022-08-19T15:44:34;1.10;;;0.70;;
26211;SDS011;13951;49.516;6.094;2022-08-19T15:47:07;0.80;;;0.70;;
26211;SDS011;13951;49.516;6.094;2022-08-19T15:49:40;0.60;;;0.50;;
26211;SDS011;13951;49.516;6.094;2022-08-19T15:52:13;0.50;;;0.50;;